createdAt,value
2019-05-05T00:00:36.479Z,28.7
2019-05-05T00:01:38.913Z,28.6
2019-05-05T00:02:41.026Z,28.9
2019-05-05T00:03:48.390Z,29.1
2019-05-05T00:04:50.290Z,28.7
2019-05-05T00:05:54.992Z,28.7
2019-05-05T00:06:57.121Z,28.7
2019-05-05T00:07:59.274Z,28.8
2019-05-05T00:09:01.142Z,28.7
2019-05-05T00:10:08.046Z,28.7
2019-05-05T00:11:10.795Z,28.6
2019-05-05T00:12:14.677Z,28.6
2019-05-05T00:13:16.920Z,28.5
2019-05-05T00:14:19.343Z,28.7
2019-05-05T00:15:21.761Z,28.7
2019-05-05T00:16:26.067Z,28.8
2019-05-05T00:17:28.210Z,28.6
2019-05-05T00:18:31.184Z,28.7
2019-05-05T00:19:35.823Z,28.7
2019-05-05T00:20:38.356Z,28.8
2019-05-05T00:21:40.845Z,28.7
2019-05-05T00:22:47.276Z,28.6
2019-05-05T00:23:49.695Z,28.8
2019-05-05T00:24:52.134Z,28.9
2019-05-05T00:25:56.284Z,28.8
2019-05-05T00:26:58.458Z,28.8
2019-05-05T00:28:00.869Z,28.8
2019-05-05T00:29:04.339Z,28.8
2019-05-05T00:30:06.847Z,28.6
2019-05-05T00:31:09.263Z,28.6
2019-05-05T00:32:11.681Z,28.7
2019-05-05T00:33:16.415Z,28.7
2019-05-05T00:34:18.556Z,28.7
2019-05-05T00:35:20.721Z,28.6
2019-05-05T00:36:25.751Z,28.5
2019-05-05T00:37:28.175Z,28.6
2019-05-05T00:38:30.595Z,28.6
2019-05-05T00:39:34.445Z,28.6
2019-05-05T00:40:37.344Z,28.7
2019-05-05T00:41:39.775Z,28.6
2019-05-05T00:42:41.925Z,28.7
2019-05-05T00:43:46.569Z,28.8
2019-05-05T00:44:48.997Z,28.6
2019-05-05T00:45:51.595Z,28.7
2019-05-05T00:46:54.995Z,28.5
2019-05-05T00:47:57.233Z,28.7
2019-05-05T00:48:59.661Z,28.6
2019-05-05T00:50:02.075Z,28.7
2019-05-05T00:51:06.448Z,28.7
2019-05-05T00:52:08.613Z,28.7
2019-05-05T00:53:11.257Z,28.6
2019-05-05T00:54:17.207Z,28.7
2019-05-05T00:55:19.636Z,28.9
2019-05-05T00:56:21.519Z,28.5
2019-05-05T00:57:26.036Z,28.7
2019-05-05T00:58:28.461Z,28.7
2019-05-05T00:59:31.219Z,28.6
2019-05-05T01:00:35.697Z,28.5
2019-05-05T01:01:38.125Z,28.6
2019-05-05T01:02:40.543Z,28.7
2019-05-05T01:03:44.155Z,28.5
2019-05-05T01:04:46.647Z,28.5
2019-05-05T01:05:48.795Z,28.6
2019-05-05T01:06:50.944Z,28.5
2019-05-05T01:07:54.995Z,28.6
2019-05-05T01:08:58.023Z,28.5
2019-05-05T01:10:00.377Z,28.5
2019-05-05T01:11:04.114Z,28.5
2019-05-05T01:12:06.359Z,28.5
2019-05-05T01:13:08.517Z,28.5
2019-05-05T01:14:10.680Z,28.6
2019-05-05T01:15:15.122Z,28.3
2019-05-05T01:16:17.285Z,28.2
2019-05-05T01:17:19.716Z,28.6
2019-05-05T01:18:21.860Z,28.4
2019-05-05T01:19:26.481Z,28.5
2019-05-05T01:20:28.061Z,28.5
2019-05-05T01:21:30.197Z,28.5
2019-05-05T01:22:34.162Z,28.4
2019-05-05T01:23:36.663Z,28.3
2019-05-05T01:24:39.077Z,28.3
2019-05-05T01:25:40.955Z,28.4
2019-05-05T01:26:44.576Z,28.7
2019-05-05T01:27:47.095Z,28.6
2019-05-05T01:28:50.154Z,28.4
2019-05-05T01:29:54.367Z,28.3
2019-05-05T01:30:56.989Z,28.3
2019-05-05T01:31:58.602Z,28.2
2019-05-05T01:33:01.048Z,28.5
2019-05-05T01:34:04.805Z,28.6
2019-05-05T01:35:07.315Z,28.5
2019-05-05T01:36:09.480Z,28.4
2019-05-05T01:37:11.897Z,28.3
2019-05-05T01:38:16.124Z,28.3
2019-05-05T01:39:19.479Z,28.1
2019-05-05T01:40:21.334Z,28.3
2019-05-05T01:41:26.325Z,28.3
2019-05-05T01:42:28.662Z,28.2
2019-05-05T01:43:30.805Z,28.2
2019-05-05T01:44:35.313Z,28.3
2019-05-05T01:45:37.754Z,28.4
2019-05-05T01:46:39.634Z,28.3
2019-05-05T01:47:41.891Z,28.3
2019-05-05T01:48:46.214Z,28.3
2019-05-05T01:49:48.363Z,28.3
2019-05-05T01:50:50.503Z,28.3
2019-05-05T01:51:56.934Z,28.3
2019-05-05T01:52:59.575Z,28.4
2019-05-05T01:54:01.973Z,28.4
2019-05-05T01:55:07.842Z,28.4
2019-05-05T01:56:10.265Z,28.4
2019-05-05T01:57:14.680Z,28.3
2019-05-05T01:58:16.875Z,28.3
2019-05-05T01:59:19.311Z,28.3
2019-05-05T02:00:21.941Z,28.3
2019-05-05T02:01:26.387Z,28.3
2019-05-05T02:02:29.605Z,28.3
2019-05-05T02:03:31.923Z,28.5
2019-05-05T02:04:37.603Z,28.3
2019-05-05T02:05:40.645Z,28.6
2019-05-05T02:06:44.268Z,28.4
2019-05-05T02:07:47.629Z,28.3
2019-05-05T02:08:50.975Z,28.4
2019-05-05T02:09:55.856Z,28.4
2019-05-05T02:10:58.275Z,28.4
2019-05-05T02:12:00.135Z,28.2
2019-05-05T02:13:04.377Z,28.4
2019-05-05T02:14:07.155Z,28.3
2019-05-05T02:15:09.913Z,28.4
2019-05-05T02:16:11.513Z,28.3
2019-05-05T02:17:17.889Z,28.6
2019-05-05T02:18:26.321Z,28.5
2019-05-05T02:19:28.459Z,28.1
2019-05-05T02:20:31.343Z,28.5
2019-05-05T02:21:35.509Z,28.4
2019-05-05T02:22:37.369Z,28.6
2019-05-05T02:23:39.987Z,28.5
2019-05-05T02:24:44.380Z,28.5
2019-05-05T02:25:46.688Z,28.4
2019-05-05T02:26:48.572Z,28.5
2019-05-05T02:27:51.003Z,28.3
2019-05-05T02:28:55.265Z,28.5
2019-05-05T02:29:57.685Z,28.5
2019-05-05T02:30:59.845Z,28.4
2019-05-05T02:32:05.735Z,28.5
2019-05-05T02:33:07.270Z,28.6
2019-05-05T02:34:09.694Z,28.3
2019-05-05T02:35:15.783Z,28.5
2019-05-05T02:36:17.671Z,28.4
2019-05-05T02:37:20.272Z,28.5
2019-05-05T02:38:22.426Z,28.6
2019-05-05T02:39:27.897Z,28.5
2019-05-05T02:40:30.317Z,28.4
2019-05-05T02:41:34.777Z,28.5
2019-05-05T02:42:36.895Z,28.7
2019-05-05T02:43:40.254Z,28.7
2019-05-05T02:44:45.248Z,28.7
2019-05-05T02:45:47.131Z,28.6
2019-05-05T02:46:49.548Z,28.4
2019-05-05T02:47:54.615Z,28.5
2019-05-05T02:48:56.661Z,28.5
2019-05-05T02:49:58.825Z,28.5
2019-05-05T02:51:02.532Z,28.6
2019-05-05T02:52:08.190Z,28.5
2019-05-05T02:53:11.235Z,28.6
2019-05-05T02:54:15.736Z,28.5
2019-05-05T02:55:18.165Z,28.5
2019-05-05T02:56:20.305Z,28.6
2019-05-05T02:57:24.739Z,28.6
2019-05-05T02:58:26.886Z,28.5
2019-05-05T02:59:29.487Z,28.6
2019-05-05T03:00:33.992Z,28.3
2019-05-05T03:01:36.832Z,28.6
2019-05-05T03:02:39.257Z,28.4
2019-05-05T03:03:46.143Z,28.5
2019-05-05T03:04:48.567Z,28.5
2019-05-05T03:05:51.008Z,28.4
2019-05-05T03:06:55.315Z,28.3
2019-05-05T03:07:57.472Z,28.4
2019-05-05T03:09:00.513Z,28.4
2019-05-05T03:10:04.912Z,28.4
2019-05-05T03:11:07.495Z,28.2
2019-05-05T03:12:11.049Z,28.5
2019-05-05T03:13:15.955Z,28.3
2019-05-05T03:14:18.058Z,28.2
2019-05-05T03:15:20.816Z,28.3
2019-05-05T03:16:25.938Z,28.2
2019-05-05T03:17:28.364Z,28.3
2019-05-05T03:18:31.393Z,28.3
2019-05-05T03:19:35.775Z,28.5
2019-05-05T03:20:38.809Z,28.2
2019-05-05T03:21:40.954Z,28.5
2019-05-05T03:22:45.144Z,28.5
2019-05-05T03:23:47.298Z,28.4
2019-05-05T03:24:49.166Z,28.4
2019-05-05T03:25:51.586Z,28.2
2019-05-05T03:26:56.075Z,28.5
2019-05-05T03:27:59.110Z,28.3
2019-05-05T03:29:01.540Z,28.5
2019-05-05T03:30:06.233Z,28.3
2019-05-05T03:31:08.402Z,28.1
2019-05-05T03:32:15.070Z,28.4
2019-05-05T03:33:17.019Z,28.4
2019-05-05T03:34:19.445Z,28.3
2019-05-05T03:35:26.530Z,28.2
2019-05-05T03:36:28.682Z,28.2
2019-05-05T03:37:31.913Z,28.1
2019-05-05T03:38:37.465Z,28.3
2019-05-05T03:39:39.885Z,28.3
2019-05-05T03:40:43.637Z,28.4
2019-05-05T03:41:45.798Z,28.4
2019-05-05T03:42:47.952Z,28.3
2019-05-05T03:43:50.104Z,28.1
2019-05-05T03:44:56.994Z,28.2
2019-05-05T03:45:59.412Z,28.2
2019-05-05T03:47:03.535Z,28.3
2019-05-05T03:48:06.042Z,28.2
2019-05-05T03:49:08.470Z,28.3
2019-05-05T03:50:11.223Z,28.2
2019-05-05T03:51:20.514Z,28.4
2019-05-05T03:52:21.335Z,28.4
2019-05-05T03:53:25.865Z,28.2
2019-05-05T03:54:28.014Z,28.1
2019-05-05T03:55:30.144Z,28.1
2019-05-05T03:56:34.454Z,28.2
2019-05-05T03:57:37.270Z,28.3
2019-05-05T03:58:39.696Z,28.2
2019-05-05T03:59:44.033Z,28.3
2019-05-05T04:00:46.828Z,28.3
2019-05-05T04:01:48.990Z,28.1
2019-05-05T04:02:53.831Z,28.3
2019-05-05T04:03:56.325Z,28.2
2019-05-05T04:04:58.469Z,28.2
2019-05-05T04:06:00.885Z,28.2
2019-05-05T04:07:05.339Z,28.2
2019-05-05T04:08:07.485Z,28.1
2019-05-05T04:09:09.653Z,28.3
2019-05-05T04:10:14.236Z,28.1
2019-05-05T04:11:16.654Z,28.1
2019-05-05T04:12:19.079Z,28.1
2019-05-05T04:13:20.943Z,28.1
2019-05-05T04:14:25.232Z,28
2019-05-05T04:15:27.666Z,28.2
2019-05-05T04:16:30.093Z,28
2019-05-05T04:17:35.332Z,28.2
2019-05-05T04:18:37.930Z,28.3
2019-05-05T04:19:40.368Z,28.1
2019-05-05T04:20:45.051Z,28.3
2019-05-05T04:21:47.465Z,28
2019-05-05T04:22:49.816Z,28.2
2019-05-05T04:23:53.475Z,28.3
2019-05-05T04:24:55.914Z,28.3
2019-05-05T04:25:58.514Z,28.2
2019-05-05T04:27:01.131Z,28
2019-05-05T04:28:05.596Z,27.9
2019-05-05T04:29:08.330Z,28.1
2019-05-05T04:30:10.494Z,28.2
2019-05-05T04:31:15.194Z,28.3
2019-05-05T04:32:17.780Z,28
2019-05-05T04:33:20.204Z,28.2
2019-05-05T04:34:24.613Z,28.1
2019-05-05T04:35:27.036Z,28.1
2019-05-05T04:36:30.209Z,28.2
2019-05-05T04:37:34.574Z,28.1
2019-05-05T04:38:36.998Z,28.2
2019-05-05T04:39:39.420Z,27.9
2019-05-05T04:40:43.334Z,28.1
2019-05-05T04:41:46.109Z,28.1
2019-05-05T04:42:47.994Z,27.9
2019-05-05T04:43:50.161Z,28.1
2019-05-05T04:44:57.255Z,27.9
2019-05-05T04:45:59.413Z,27.9
2019-05-05T04:47:03.723Z,28.2
2019-05-05T04:48:06.833Z,28
2019-05-05T04:49:09.068Z,28.2
2019-05-05T04:50:11.467Z,27.9
2019-05-05T04:51:17.402Z,28.3
2019-05-05T04:52:19.832Z,28.1
2019-05-05T04:53:24.236Z,28
2019-05-05T04:54:26.356Z,28.3
2019-05-05T04:55:28.515Z,28
2019-05-05T04:56:30.411Z,28.1
2019-05-05T04:57:35.479Z,28.2
2019-05-05T04:58:37.940Z,27.9
2019-05-05T04:59:40.364Z,27.9
2019-05-05T05:00:44.934Z,27.7
2019-05-05T05:01:47.374Z,28.2
2019-05-05T05:02:49.719Z,28.1
2019-05-05T05:03:51.855Z,28.2
2019-05-05T05:04:56.223Z,28
2019-05-05T05:05:58.640Z,28.1
2019-05-05T05:07:01.064Z,28.1
2019-05-05T05:08:05.580Z,28
2019-05-05T05:09:08.176Z,28
2019-05-05T05:10:10.615Z,27.9
2019-05-05T05:11:16.477Z,28.1
2019-05-05T05:12:18.641Z,27.7
2019-05-05T05:13:20.794Z,27.9
2019-05-05T05:14:25.203Z,28.1
2019-05-05T05:15:27.628Z,28.2
2019-05-05T05:16:29.750Z,28
2019-05-05T05:17:33.797Z,27.9
2019-05-05T05:18:36.032Z,28.1
2019-05-05T05:19:38.179Z,28
2019-05-05T05:20:40.344Z,28
2019-05-05T05:21:43.598Z,27.8
2019-05-05T05:22:49.164Z,27.9
2019-05-05T05:23:53.127Z,27.9
2019-05-05T05:24:56.648Z,28.3
2019-05-05T05:25:59.413Z,27.6
2019-05-05T05:27:01.782Z,27.9
2019-05-05T05:28:06.456Z,27.9
2019-05-05T05:29:08.882Z,28.1
2019-05-05T05:30:13.482Z,28.2
2019-05-05T05:31:16.280Z,28
2019-05-05T05:32:18.445Z,28.3
2019-05-05T05:33:20.865Z,28
2019-05-05T05:34:25.280Z,28.2
2019-05-05T05:35:27.698Z,28
2019-05-05T05:36:29.832Z,27.8
2019-05-05T05:37:34.024Z,27.8
2019-05-05T05:38:36.829Z,28
2019-05-05T05:39:39.233Z,28
2019-05-05T05:40:41.362Z,28.1
2019-05-05T05:41:46.504Z,27.7
2019-05-05T05:42:48.904Z,27.9
2019-05-05T05:43:51.327Z,27.7
2019-05-05T05:44:55.624Z,28.2
2019-05-05T05:45:58.398Z,28.1
2019-05-05T05:47:01.018Z,28
2019-05-05T05:48:05.405Z,28.2
2019-05-05T05:49:07.556Z,28.1
2019-05-05T05:50:09.716Z,28
2019-05-05T05:51:14.787Z,27.7
2019-05-05T05:52:21.213Z,28
2019-05-05T05:53:26.240Z,27.6
2019-05-05T05:54:28.132Z,27.9
2019-05-05T05:55:30.295Z,28.2
2019-05-05T05:56:36.918Z,27.6
2019-05-05T05:57:39.618Z,28.3
2019-05-05T05:58:44.320Z,28
2019-05-05T05:59:46.742Z,28.2
2019-05-05T06:00:49.791Z,27.7
2019-05-05T06:02:06.009Z,27.9
2019-05-05T06:02:56.926Z,27.9
2019-05-05T06:03:59.477Z,28
2019-05-05T06:05:01.651Z,28
2019-05-05T06:06:05.794Z,28.1
2019-05-05T06:07:08.218Z,27.7
2019-05-05T06:08:10.820Z,28
2019-05-05T06:09:16.760Z,28
2019-05-05T06:10:23.787Z,27.8
2019-05-05T06:11:23.953Z,27.8
2019-05-05T06:12:26.290Z,28
2019-05-05T06:13:28.428Z,27.9
2019-05-05T06:14:30.928Z,28
2019-05-05T06:15:35.725Z,28
2019-05-05T06:16:37.884Z,27.7
2019-05-05T06:17:40.024Z,27.9
2019-05-05T06:18:44.542Z,28
2019-05-05T06:19:47.623Z,27.7
2019-05-05T06:20:50.047Z,28
2019-05-05T06:21:54.458Z,28.1
2019-05-05T06:22:56.880Z,28.1
2019-05-05T06:23:59.102Z,27.9
2019-05-05T06:25:01.583Z,27.9
2019-05-05T06:26:07.513Z,27.9
2019-05-05T06:27:09.954Z,28
2019-05-05T06:28:14.944Z,28
2019-05-05T06:29:17.390Z,28
2019-05-05T06:30:20.728Z,27.9
2019-05-05T06:31:25.305Z,27.6
2019-05-05T06:32:28.330Z,28.2
2019-05-05T06:33:31.094Z,27.8
2019-05-05T06:34:37.246Z,27.9
2019-05-05T06:35:39.675Z,27.9
2019-05-05T06:36:41.823Z,27.9
2019-05-05T06:37:46.730Z,27.8
2019-05-05T06:38:49.141Z,28
2019-05-05T06:39:51.302Z,27.9
2019-05-05T06:40:55.870Z,28.1
2019-05-05T06:41:58.302Z,27.9
2019-05-05T06:43:01.217Z,27.7
2019-05-05T06:44:06.057Z,27.7
2019-05-05T06:45:08.674Z,27.6
2019-05-05T06:46:10.842Z,27.8
2019-05-05T06:47:17.263Z,27.7
2019-05-05T06:48:19.392Z,27.8
2019-05-05T06:49:23.679Z,27.9
2019-05-05T06:50:25.986Z,27.9
2019-05-05T06:51:28.164Z,27.7
2019-05-05T06:52:41.730Z,27.9
2019-05-05T06:53:35.560Z,27.7
2019-05-05T06:54:37.707Z,27.6
2019-05-05T06:55:40.121Z,27.7
2019-05-05T06:56:47.014Z,27.6
2019-05-05T06:57:49.174Z,27.7
2019-05-05T06:58:51.343Z,27.7
2019-05-05T06:59:55.964Z,27.6
2019-05-05T07:00:58.400Z,27.5
2019-05-05T07:02:00.544Z,27.6
2019-05-05T07:03:07.628Z,27.7
2019-05-05T07:04:10.149Z,27.8
2019-05-05T07:05:14.471Z,27.7
2019-05-05T07:06:17.054Z,27.6
2019-05-05T07:07:19.482Z,27.6
2019-05-05T07:08:21.641Z,27.8
2019-05-05T07:09:26.443Z,27.8
2019-05-05T07:10:28.316Z,27.8
2019-05-05T07:11:30.462Z,27.9
2019-05-05T07:12:34.757Z,27.7
2019-05-05T07:13:37.002Z,27.6
2019-05-05T07:14:38.881Z,27.6
2019-05-05T07:15:43.513Z,27.6
2019-05-05T07:16:46.335Z,27.8
2019-05-05T07:17:48.754Z,27.7
2019-05-05T07:18:50.657Z,28
2019-05-05T07:19:56.598Z,27.6
2019-05-05T07:20:59.228Z,27.7
2019-05-05T07:22:01.378Z,27.7
2019-05-05T07:23:06.007Z,27.8
2019-05-05T07:24:09.037Z,27.7
2019-05-05T07:25:13.546Z,27.8
2019-05-05T07:26:15.861Z,27.7
2019-05-05T07:27:18.290Z,27.7
2019-05-05T07:28:20.714Z,27.6
2019-05-05T07:29:26.175Z,27.7
2019-05-05T07:30:29.201Z,27.7
2019-05-05T07:31:31.618Z,27.7
2019-05-05T07:32:35.633Z,27.7
2019-05-05T07:33:37.516Z,27.6
2019-05-05T07:34:39.934Z,27.7
2019-05-05T07:35:55.260Z,27.7
2019-05-05T07:36:49.081Z,27.8
2019-05-05T07:37:53.672Z,27.8
2019-05-05T07:38:56.492Z,27.6
2019-05-05T07:39:58.972Z,27.5
2019-05-05T07:41:03.468Z,27.6
2019-05-05T07:42:06.090Z,27.7
2019-05-05T07:43:08.534Z,27.9
2019-05-05T07:44:23.410Z,27.9
2019-05-05T07:45:21.932Z,27.7
2019-05-05T07:46:20.659Z,27.6
2019-05-05T07:47:25.104Z,27.6
2019-05-05T07:48:27.762Z,27.9
2019-05-05T07:49:30.244Z,27.8
2019-05-05T07:50:35.732Z,27.9
2019-05-05T07:51:38.912Z,27.8
2019-05-05T07:52:41.452Z,27.9
2019-05-05T07:53:45.808Z,28.1
2019-05-05T07:54:48.232Z,28
2019-05-05T07:55:50.604Z,27.7
2019-05-05T07:56:54.750Z,27.8
2019-05-05T07:57:57.176Z,27.9
2019-05-05T07:58:59.599Z,27.8
2019-05-05T08:00:06.214Z,27.8
2019-05-05T08:01:08.364Z,27.8
2019-05-05T08:02:11.352Z,27.9
2019-05-05T08:03:16.256Z,27.8
2019-05-05T08:04:18.666Z,27.9
2019-05-05T08:05:20.254Z,27.6
2019-05-05T08:06:23.672Z,27.7
2019-05-05T08:07:25.904Z,27.7
2019-05-05T08:08:28.235Z,27.8
2019-05-05T08:09:30.114Z,27.9
2019-05-05T08:10:36.538Z,27.9
2019-05-05T08:11:39.136Z,27.9
2019-05-05T08:12:43.397Z,27.8
2019-05-05T08:13:45.764Z,27.7
2019-05-05T08:14:47.905Z,27.7
2019-05-05T08:15:57.427Z,27.9
2019-05-05T08:16:55.304Z,27.8
2019-05-05T08:17:57.454Z,27.6
2019-05-05T08:19:00.076Z,27.8
2019-05-05T08:20:04.415Z,27.6
2019-05-05T08:21:06.274Z,27.8
2019-05-05T08:22:08.513Z,27.8
2019-05-05T08:23:25.781Z,27.8
2019-05-05T08:24:16.363Z,27.9
2019-05-05T08:25:18.232Z,27.8
2019-05-05T08:26:23.740Z,27.9
2019-05-05T08:27:26.147Z,27.4
2019-05-05T08:28:28.575Z,27.7
2019-05-05T08:29:31.001Z,27.9
2019-05-05T08:30:35.250Z,27.9
2019-05-05T08:31:37.666Z,27.8
2019-05-05T08:32:39.784Z,27.8
2019-05-05T08:33:46.206Z,27.7
2019-05-05T08:34:58.021Z,27.8
2019-05-05T08:35:54.221Z,27.8
2019-05-05T08:36:59.752Z,27.7
2019-05-05T08:38:04.269Z,27.8
2019-05-05T08:39:06.932Z,27.8
2019-05-05T08:40:09.286Z,27.7
2019-05-05T08:41:13.804Z,27.7
2019-05-05T08:42:16.255Z,27.6
2019-05-05T08:43:18.882Z,27.9
2019-05-05T08:44:21.043Z,27.7
2019-05-05T08:45:26.691Z,27.4
2019-05-05T08:46:28.952Z,27.8
2019-05-05T08:47:31.386Z,27.6
2019-05-05T08:48:36.050Z,27.8
2019-05-05T08:49:38.464Z,27.9
2019-05-05T08:50:40.817Z,27.7
2019-05-05T08:51:44.911Z,27.9
2019-05-05T08:52:47.346Z,27.8
2019-05-05T08:53:49.648Z,27.6
2019-05-05T08:54:54.050Z,27.8
2019-05-05T08:55:56.130Z,27.8
2019-05-05T08:56:58.428Z,27.8
2019-05-05T08:58:00.691Z,27.8
2019-05-05T08:59:07.116Z,27.7
2019-05-05T09:00:09.541Z,27.5
2019-05-05T09:01:16.447Z,27.8
2019-05-05T09:02:18.875Z,27.8
2019-05-05T09:03:21.036Z,27.6
2019-05-05T09:04:25.028Z,28
2019-05-05T09:05:27.189Z,27.7
2019-05-05T09:06:29.344Z,27.7
2019-05-05T09:07:33.603Z,27.8
2019-05-05T09:08:36.097Z,28
2019-05-05T09:09:37.980Z,27.7
2019-05-05T09:10:40.405Z,28.1
2019-05-05T09:11:43.733Z,27.9
2019-05-05T09:12:46.304Z,27.7
2019-05-05T09:13:48.722Z,27.5
2019-05-05T09:14:51.145Z,27.8
2019-05-05T09:15:57.061Z,27.7
2019-05-05T09:17:00.065Z,27.6
2019-05-05T09:18:06.954Z,27.7
2019-05-05T09:19:09.994Z,27.9
2019-05-05T09:20:15.112Z,27.7
2019-05-05T09:21:17.251Z,27.7
2019-05-05T09:22:19.410Z,27.7
2019-05-05T09:23:23.797Z,27.7
2019-05-05T09:24:26.142Z,27.8
2019-05-05T09:25:29.180Z,27.8
2019-05-05T09:26:31.330Z,27.8
2019-05-05T09:27:36.076Z,27.8
2019-05-05T09:28:38.214Z,27.6
2019-05-05T09:29:40.850Z,27.7
2019-05-05T09:30:45.150Z,27.8
2019-05-05T09:31:47.527Z,27.8
2019-05-05T09:32:49.404Z,27.7
2019-05-05T09:33:53.611Z,27.7
2019-05-05T09:34:56.157Z,27.9
2019-05-05T09:35:59.378Z,27.8
2019-05-05T09:37:03.629Z,27.7
2019-05-05T09:38:06.174Z,27.5
2019-05-05T09:39:08.314Z,27.7
2019-05-05T09:40:11.323Z,27.8
2019-05-05T09:41:15.593Z,27.8
2019-05-05T09:42:19.889Z,27.9
2019-05-05T09:43:24.201Z,27.6
2019-05-05T09:44:26.653Z,27.7
2019-05-05T09:45:28.793Z,27.8
2019-05-05T09:46:30.957Z,27.5
2019-05-05T09:47:35.296Z,27.7
2019-05-05T09:48:37.735Z,27.6
2019-05-05T09:49:40.170Z,27.6
2019-05-05T09:50:47.066Z,27.8
2019-05-05T09:51:48.666Z,27.8
2019-05-05T09:52:51.083Z,27.8
2019-05-05T09:53:56.156Z,27.6
2019-05-05T09:55:03.780Z,27.8
2019-05-05T09:56:06.264Z,27.6
2019-05-05T09:57:08.420Z,27.8
2019-05-05T09:58:10.599Z,27.7
2019-05-05T09:59:14.919Z,27.6
2019-05-05T10:00:17.052Z,27.7
2019-05-05T10:01:19.219Z,27.9
2019-05-05T10:02:21.378Z,27.6
2019-05-05T10:03:27.166Z,27.6
2019-05-05T10:04:29.379Z,27.7
2019-05-05T10:05:31.808Z,27.7
2019-05-05T10:06:36.757Z,27.7
2019-05-05T10:07:40.125Z,27.8
2019-05-05T10:08:44.760Z,27.9
2019-05-05T10:09:46.913Z,27.7
2019-05-05T10:10:49.335Z,27.7
2019-05-05T10:11:53.893Z,27.7
2019-05-05T10:12:56.487Z,27.6
2019-05-05T10:13:58.927Z,27.8
2019-05-05T10:15:01.369Z,27.8
2019-05-05T10:16:07.426Z,27.7
2019-05-05T10:17:09.860Z,27.8
2019-05-05T10:18:16.481Z,27.7
2019-05-05T10:19:18.893Z,27.7
2019-05-05T10:20:23.552Z,27.5
2019-05-05T10:21:26.661Z,27.8
2019-05-05T10:22:29.086Z,27.8
2019-05-05T10:23:31.712Z,27.5
2019-05-05T10:24:36.064Z,27.9
2019-05-05T10:25:38.514Z,27.7
2019-05-05T10:26:43.644Z,27.8
2019-05-05T10:27:47.721Z,27.8
2019-05-05T10:28:50.273Z,27.7
2019-05-05T10:29:54.871Z,27.7
2019-05-05T10:30:58.392Z,27.6
2019-05-05T10:32:00.825Z,27.5
2019-05-05T10:33:06.665Z,27.7
2019-05-05T10:34:08.800Z,27.5
2019-05-05T10:35:11.224Z,27.6
2019-05-05T10:36:15.927Z,27.5
2019-05-05T10:37:18.075Z,27.7
2019-05-05T10:38:21.089Z,27.6
2019-05-05T10:39:25.482Z,27.8
2019-05-05T10:40:27.655Z,27.5
2019-05-05T10:41:29.673Z,27.6
2019-05-05T10:42:34.274Z,27.7
2019-05-05T10:43:36.693Z,27.8
2019-05-05T10:44:39.125Z,27.8
2019-05-05T10:45:41.542Z,27.6
2019-05-05T10:46:46.713Z,27.7
2019-05-05T10:47:49.136Z,27.8
2019-05-05T10:48:51.184Z,27.7
2019-05-05T10:49:55.708Z,27.6
2019-05-05T10:51:00.828Z,27.8
2019-05-05T10:52:06.764Z,27.6
2019-05-05T10:53:09.958Z,27.6
2019-05-05T10:54:14.347Z,27.9
2019-05-05T10:55:16.508Z,27.7
2019-05-05T10:56:18.957Z,27.9
2019-05-05T10:57:21.113Z,27.7
2019-05-05T10:58:25.334Z,27.7
2019-05-05T10:59:27.777Z,27.7
2019-05-05T11:00:29.666Z,27.7
2019-05-05T11:01:33.977Z,27.7
2019-05-05T11:02:36.158Z,27.8
2019-05-05T11:03:38.590Z,27.8
2019-05-05T11:04:41.024Z,27.7
2019-05-05T11:05:45.686Z,27.7
2019-05-05T11:06:48.128Z,27.6
2019-05-05T11:07:50.294Z,27.7
2019-05-05T11:08:54.725Z,27.6
2019-05-05T11:09:57.153Z,27.9
2019-05-05T11:10:59.933Z,27.8
2019-05-05T11:12:04.746Z,27.8
2019-05-05T11:13:07.176Z,27.8
2019-05-05T11:14:09.812Z,27.7
2019-05-05T11:15:16.742Z,27.6
2019-05-05T11:16:18.340Z,27.7
2019-05-05T11:17:20.772Z,27.8
2019-05-05T11:18:26.228Z,27.5
2019-05-05T11:19:28.663Z,27.6
2019-05-05T11:20:30.569Z,27.6
2019-05-05T11:21:34.728Z,27.6
2019-05-05T11:22:38.035Z,27.6
2019-05-05T11:23:40.459Z,27.5
2019-05-05T11:24:54.912Z,27.7
2019-05-05T11:25:47.304Z,27.7
2019-05-05T11:26:49.929Z,27.5
2019-05-05T11:27:56.561Z,27.5
2019-05-05T11:28:59.205Z,27.8
2019-05-05T11:30:03.706Z,27.6
2019-05-05T11:31:06.301Z,27.6
2019-05-05T11:32:08.473Z,27.6
2019-05-05T11:33:11.127Z,27.7
2019-05-05T11:34:15.724Z,27.7
2019-05-05T11:35:18.369Z,27.6
2019-05-05T11:36:20.512Z,27.7
2019-05-05T11:37:24.959Z,27.7
2019-05-05T11:38:28.598Z,27.6
2019-05-05T11:39:30.492Z,27.8
2019-05-05T11:40:35.094Z,27.8
2019-05-05T11:41:37.531Z,27.6
2019-05-05T11:42:39.407Z,27.7
2019-05-05T11:43:41.674Z,27.7
2019-05-05T11:44:47.150Z,27.5
2019-05-05T11:45:49.103Z,27.7
2019-05-05T11:46:54.436Z,27.5
2019-05-05T11:49:17.309Z,27.6
2019-05-05T11:50:20.563Z,27.6
2019-05-05T11:51:26.004Z,27.7
2019-05-05T11:52:28.359Z,27.4
2019-05-05T11:55:11.334Z,27.7
2019-05-05T11:56:14.427Z,27.7
2019-05-05T11:57:17.223Z,27.5
2019-05-05T11:58:19.373Z,27.7
2019-05-05T11:59:23.705Z,27.5
2019-05-05T12:00:26.048Z,27.5
2019-05-05T12:01:28.495Z,27.7
2019-05-05T12:02:30.954Z,27.6
2019-05-05T12:03:37.750Z,27.5
2019-05-05T12:04:40.131Z,27.5
2019-05-05T12:05:44.216Z,27.6
2019-05-05T12:06:46.776Z,27.5
2019-05-05T12:07:49.216Z,27.6
2019-05-05T12:08:51.666Z,27.5
2019-05-05T12:09:54.855Z,27.7
2019-05-05T12:10:57.166Z,27.5
2019-05-05T12:11:59.543Z,27.7
2019-05-05T12:13:04.273Z,27.5
2019-05-05T12:14:07.004Z,27.6
2019-05-05T12:15:08.870Z,27.6
2019-05-05T12:16:11.033Z,27.5
2019-05-05T12:17:15.347Z,27.6
2019-05-05T12:18:17.773Z,27.5
2019-05-05T12:19:20.212Z,27.6
2019-05-05T12:20:25.254Z,27.6
2019-05-05T12:21:27.693Z,27.7
2019-05-05T12:22:29.844Z,27.6
2019-05-05T12:23:34.336Z,27.8
2019-05-05T12:24:36.755Z,27.5
2019-05-05T12:25:39.381Z,27.4
2019-05-05T12:26:46.279Z,27.6
2019-05-05T12:27:48.434Z,27.6
2019-05-05T12:28:50.318Z,27.7
2019-05-05T12:29:56.817Z,27.7
2019-05-05T12:30:59.263Z,27.7
2019-05-05T12:32:02.051Z,27.6
2019-05-05T12:33:04.860Z,27.8
2019-05-05T12:34:07.053Z,27.4
2019-05-05T12:35:09.193Z,27.8
2019-05-05T12:36:12.315Z,27.8
2019-05-05T12:37:17.169Z,27.7
2019-05-05T12:38:19.335Z,27.4
2019-05-05T12:39:21.497Z,27.6
2019-05-05T12:40:24.608Z,27.8
2019-05-05T12:41:27.098Z,27.6
2019-05-05T12:42:29.243Z,27.7
2019-05-05T12:43:34.000Z,27.5
2019-05-05T12:44:36.658Z,27.7
2019-05-05T12:45:38.797Z,27.6
2019-05-05T12:46:40.954Z,27.6
2019-05-05T12:47:45.644Z,27.6
2019-05-05T12:48:48.248Z,27.5
2019-05-05T12:49:50.577Z,27.7
2019-05-05T12:50:57.000Z,27.6
2019-05-05T12:52:00.055Z,27.6
2019-05-05T12:53:04.011Z,27.6
2019-05-05T12:54:05.719Z,27.8
2019-05-05T12:55:08.227Z,27.7
2019-05-05T12:56:10.841Z,27.6
2019-05-05T12:57:15.535Z,27.8
2019-05-05T12:58:18.161Z,27.7
2019-05-05T12:59:21.165Z,27.5
2019-05-05T13:00:25.974Z,27.6
2019-05-05T13:01:28.133Z,27.5
2019-05-05T13:02:30.564Z,27.6
2019-05-05T13:03:34.571Z,27.6
2019-05-05T13:04:37.728Z,27.6
2019-05-05T13:05:40.154Z,27.7
2019-05-05T13:06:44.762Z,27.8
2019-05-05T13:07:47.557Z,27.8
2019-05-05T13:08:50.028Z,27.8
2019-05-05T13:09:54.303Z,27.5
2019-05-05T13:10:56.958Z,27.7
2019-05-05T13:11:59.394Z,27.4
2019-05-05T13:13:03.729Z,27.7
2019-05-05T13:14:06.006Z,27.7
2019-05-05T13:15:08.505Z,27.6
2019-05-05T13:16:10.858Z,27.7
2019-05-05T13:17:16.295Z,27.7
2019-05-05T13:18:18.158Z,27.7
2019-05-05T13:19:20.311Z,27.6
2019-05-05T13:20:26.743Z,27.7
2019-05-05T13:21:29.793Z,27.6
2019-05-05T13:22:33.760Z,27.6
2019-05-05T13:23:35.719Z,27.7
2019-05-05T13:24:38.149Z,27.6
2019-05-05T13:25:53.075Z,27.6
2019-05-05T13:26:45.558Z,27.6
2019-05-05T13:27:48.169Z,27.9
2019-05-05T13:28:50.209Z,27.7
2019-05-05T13:29:53.605Z,27.7
2019-05-05T13:30:56.163Z,27.7
2019-05-05T13:31:58.534Z,27.6
2019-05-05T13:33:00.947Z,27.6
2019-05-05T13:34:05.355Z,27.7
2019-05-05T13:35:07.786Z,27.6
2019-05-05T13:36:10.206Z,27.6
2019-05-05T13:37:16.355Z,27.7
2019-05-05T13:38:18.227Z,27.7
2019-05-05T13:39:20.681Z,27.6
2019-05-05T13:40:25.841Z,27.6
2019-05-05T13:41:27.702Z,27.9
2019-05-05T13:42:29.886Z,27.6
2019-05-05T13:43:34.026Z,27.7
2019-05-05T13:44:36.824Z,27.8
2019-05-05T13:45:38.996Z,27.6
2019-05-05T13:46:41.437Z,27.7
2019-05-05T13:47:46.901Z,27.5
2019-05-05T13:48:49.075Z,27.5
2019-05-05T13:49:50.984Z,27.5
2019-05-05T13:50:56.907Z,27.6
2019-05-05T13:51:59.685Z,27.4
2019-05-05T13:53:07.186Z,27.9
2019-05-05T13:54:09.655Z,27.5
2019-05-05T13:55:13.736Z,27.6
2019-05-05T13:56:16.518Z,27.5
2019-05-05T13:57:19.148Z,27.8
2019-05-05T13:58:21.219Z,27.7
2019-05-05T13:59:26.085Z,27.6
2019-05-05T14:00:28.237Z,27.6
2019-05-05T14:01:31.001Z,27.6
2019-05-05T14:02:35.667Z,27.5
2019-05-05T14:03:38.891Z,27.6
2019-05-05T14:04:43.746Z,27.6
2019-05-05T14:05:46.845Z,27.5
2019-05-05T14:06:49.835Z,27.7
2019-05-05T14:07:53.626Z,27.8